Address 0xbd0dc10e9744f8e6f6b42a0e7deab0e9b5921f2f

 

Overview

Balance:
0 BNB

BNB Value:
$0.00

Token:
 
Txn Hash Method
Block
From
To
Value [Txn Fee]
0xf239838e5b5513b42267b4f5abc5b69975188641973630ba2e385c262b220938Transfer111434922021-09-22 18:32:4323 days 19 hrs ago0xbd0dc10e9744f8e6f6b42a0e7deab0e9b5921f2fOUT0x094cf3784dc9ee2e3b0782ab4a47c80db581cb7b0.207383918634002 BNB0.000105
0x8486ca7ee6a9c366d0c368a54dd206b12dec5dd3dd8f5b49bdeff61074f5a292Swap Exact Token...111433302021-09-22 18:24:3723 days 19 hrs ago0xbd0dc10e9744f8e6f6b42a0e7deab0e9b5921f2fOUT PancakeSwap: Router v20 BNB0.00130406
0x70ed8618daea772216a2ab541ec99eb39dff90c87ad3938975aca7bfbdd2d722Approve111431042021-09-22 18:13:1923 days 20 hrs ago0xbd0dc10e9744f8e6f6b42a0e7deab0e9b5921f2fOUT Dexioprotocol: DEXI Token0 BNB0.00022274
0xd37574a77174ef5544725a650d29312c3a345f521443aafb6135f29c4d6aeb8aSwap Exact ETH F...111281432021-09-22 5:41:0024 days 8 hrs ago0xbd0dc10e9744f8e6f6b42a0e7deab0e9b5921f2fOUT PancakeSwap: Router v20.1138187 BNB0.00118037
0x292c4d9623c02ccbad91cee268d4e26e433cb894943fac1d6fccf3a1566630f9Transfer111160892021-09-21 19:30:4224 days 18 hrs ago0xbd0dc10e9744f8e6f6b42a0e7deab0e9b5921f2fOUT 0xb3cb0dc0cf857a4568331d4ed745c4778e62fa750 BNB0.0001813
0x2d8dfd466e5331b4445e4c7de61ea5ce548b45aa4f4b6578dfb85275207c6cd6Transfer107080462021-09-07 13:18:2739 days 1 hr ago0xbd0dc10e9744f8e6f6b42a0e7deab0e9b5921f2fOUT0x094cf3784dc9ee2e3b0782ab4a47c80db581cb7b0.08175420282191 BNB0.000105
0x35b900258bbbe2bcb49699f6a7ddba441723f28af01f60f5a470994503873a44Transfer107079242021-09-07 13:12:2139 days 1 hr ago0xcd5f3c15120a1021155174719ec5fcf2c75adf5b IN 0xbd0dc10e9744f8e6f6b42a0e7deab0e9b5921f2f0.07640259 BNB0.000336
0x28f235b3d53409dceb345050a133cc919e3d2a8403f5b9145353f9fbe0fbdec8Transfer Out106605042021-09-05 21:22:5240 days 16 hrs ago0xbd0dc10e9744f8e6f6b42a0e7deab0e9b5921f2fOUT BSC: Token Hub0.522 BNB0.00038131
0x593a58f74916ca3b40600dfcf9d3fe9c06c4e4b88003d0d397241b81e0d40f5aSwap Exact Token...106604292021-09-05 21:19:0740 days 17 hrs ago0xbd0dc10e9744f8e6f6b42a0e7deab0e9b5921f2fOUT PancakeSwap: Router v20 BNB0.004159253
0x6ab136ae2a0a3a07dc0847024633d816a6090a9beeee06c26c40e9e33786239cRemove Liquidity...106603802021-09-05 21:16:4040 days 17 hrs ago0xbd0dc10e9744f8e6f6b42a0e7deab0e9b5921f2fOUT PancakeSwap: Router v20 BNB0.006730626
0x3ea58a4aa7138d0173f172bd3b529538947415d68f0921a5b10f6dad268570bcWithdraw106602382021-09-05 21:09:3440 days 17 hrs ago0xbd0dc10e9744f8e6f6b42a0e7deab0e9b5921f2fOUT Pera Finance: PERA Token0 BNB0.001753805
0x1eaa9f372ec3cfb1adedec263004c79115a106848135a06086c2550de3047e47Withdraw106595392021-09-05 20:34:1640 days 17 hrs ago0xbd0dc10e9744f8e6f6b42a0e7deab0e9b5921f2fOUT 0xec15d42d72ac1fa6110b7e1db9b4e9fae9f0e6240 BNB0.00034551
0xe32f9648930847363ad3aadfc84448cea817f18f5a44dca07913214565edbdb6Transfer Out106591342021-09-05 20:14:0140 days 18 hrs ago0xbd0dc10e9744f8e6f6b42a0e7deab0e9b5921f2fOUT BSC: Token Hub0.032 BNB0.000381875
0x6c6682aae32b1be6f4878f592da17061060df98ad8804f19aeece1b030487d98Transfer106589732021-09-05 20:05:5840 days 18 hrs ago0xcd5f3c15120a1021155174719ec5fcf2c75adf5b IN 0xbd0dc10e9744f8e6f6b42a0e7deab0e9b5921f2f0.12295691 BNB0.000336
0xc87b8c5aec3bce372920729697732bc04491749cc688d9249008e11ef7219693Deposit106535822021-09-05 15:35:5040 days 22 hrs ago0xbd0dc10e9744f8e6f6b42a0e7deab0e9b5921f2fOUT 0x926745439c6025536929f9a90601593cd62082ff0 BNB0.0020963
0xd50290b5303dcf561123c953486e98a7c0307932c19d685d4e50858ee1a807c3Deposit106535612021-09-05 15:34:4740 days 22 hrs ago0xbd0dc10e9744f8e6f6b42a0e7deab0e9b5921f2fOUT 0x926745439c6025536929f9a90601593cd62082ff0 BNB0.0020963
0x3cb19ebf3e87133b79fed51adc3a45483cf80fe69b5aa321b88a7384b9b47048Approve106534912021-09-05 15:31:1740 days 22 hrs ago0xbd0dc10e9744f8e6f6b42a0e7deab0e9b5921f2fOUT 0xf6a557bd6fb2a96dc04b6266d8f8d6e729c8b3c70 BNB0.00022215
0x450a6cee6b10455749007b1c65cf34607660e1915fdfa9a720e7412e3dd3fb60Deposit L Ptoken106344832021-09-04 23:38:5441 days 14 hrs ago0xbd0dc10e9744f8e6f6b42a0e7deab0e9b5921f2fOUT Pera Finance: PERA Token0 BNB0.00175486
0x40b81b0334c471af66f4a45a1a0c7c6d11c3fa4d4aedcecaafee97ff4c292a07Add Liquidity ET...106344572021-09-04 23:37:3641 days 14 hrs ago0xbd0dc10e9744f8e6f6b42a0e7deab0e9b5921f2fOUT PancakeSwap: Router v20.103705073334938 BNB0.00435113
0xba8dfe5abc92e92bd7a70d8efbe26084b4cee0bbf77bffea87d5318ce80db616Transfer106344252021-09-04 23:36:0041 days 14 hrs ago0xcd5f3c15120a1021155174719ec5fcf2c75adf5b IN 0xbd0dc10e9744f8e6f6b42a0e7deab0e9b5921f2f0.12224971 BNB0.000336
0x1c0035e2efd3daf4578e9a7b2642bb91ab06460ed1539e3800d2f78c690b57cdDeposit L Ptoken106343152021-09-04 23:30:3041 days 14 hrs ago0xbd0dc10e9744f8e6f6b42a0e7deab0e9b5921f2fOUT Pera Finance: PERA Token0 BNB0.00050229
0xe1388e40ba2fd995b45bc489dcf585efb1c954d160695a3c7cf562d3351931aeApprove106343042021-09-04 23:29:5741 days 14 hrs ago0xbd0dc10e9744f8e6f6b42a0e7deab0e9b5921f2fOUT PancakeSwap V2: PERA 130 BNB0.00022221
0x67a3ed5e7723b8f4849628e0eb868695f3f75e1989bd8361cebea226caa52ba2Add Liquidity ET...106342512021-09-04 23:27:1741 days 14 hrs ago0xbd0dc10e9744f8e6f6b42a0e7deab0e9b5921f2fOUT PancakeSwap: Router v20.121017404 BNB0.004161563
0xf10acc1b907458e44f1e6f31f542b25e2e96d2e89b7a273fedb19dc1067a0d5bApprove106340562021-09-04 23:17:3241 days 15 hrs ago0xbd0dc10e9744f8e6f6b42a0e7deab0e9b5921f2fOUT Simurgh Finance: SIMURGH Token0 BNB0.00022215
0x9a6510adb062330eb7997cd5b7eeaa7c1e8cb37a67f7c13739fbcca8a826b0a2Approve106339422021-09-04 23:11:5041 days 15 hrs ago0xbd0dc10e9744f8e6f6b42a0e7deab0e9b5921f2fOUT Simurgh Finance: SIMURGH Token0 BNB0.00022209
[ Download CSV Export 
Latest 8 internal transactions
Parent Txn Hash Block From To Value
0x1e7b62ce2d4d130ca6b77feae7b946b88758181161bc74c97fabde28465dd51f111434672021-09-22 18:31:2823 days 19 hrs ago BSC: Token Hub0xbd0dc10e9744f8e6f6b42a0e7deab0e9b5921f2f0.05 BNB
0x8486ca7ee6a9c366d0c368a54dd206b12dec5dd3dd8f5b49bdeff61074f5a292111433302021-09-22 18:24:3723 days 19 hrs ago PancakeSwap: Router v20xbd0dc10e9744f8e6f6b42a0e7deab0e9b5921f2f0.100196088634002001 BNB
0xe954b6b8c33f22c396960bb6e06c044b7317deb95e3f8ddba9599f7224e070af111432982021-09-22 18:23:0123 days 19 hrs ago BSC: Token Hub0xbd0dc10e9744f8e6f6b42a0e7deab0e9b5921f2f0.05 BNB
0xd3b092f8b3d4a5bc4dd3f2994a1822c36338b570d62d3fbb4945182aae83d12e111160152021-09-21 19:27:0024 days 18 hrs ago BSC: Token Hub0xbd0dc10e9744f8e6f6b42a0e7deab0e9b5921f2f0.124 BNB
0x593a58f74916ca3b40600dfcf9d3fe9c06c4e4b88003d0d397241b81e0d40f5a106604292021-09-05 21:19:0740 days 17 hrs ago PancakeSwap: Router v20xbd0dc10e9744f8e6f6b42a0e7deab0e9b5921f2f0.213687156567999001 BNB
0x6ab136ae2a0a3a07dc0847024633d816a6090a9beeee06c26c40e9e33786239c106603802021-09-05 21:16:4040 days 17 hrs ago PancakeSwap: Router v20xbd0dc10e9744f8e6f6b42a0e7deab0e9b5921f2f0.223427091588850687 BNB
0x67a3ed5e7723b8f4849628e0eb868695f3f75e1989bd8361cebea226caa52ba2106342512021-09-04 23:27:1741 days 14 hrs ago PancakeSwap: Router v20xbd0dc10e9744f8e6f6b42a0e7deab0e9b5921f2f1 wei
0x1707d0c714bf31b2172c7932dd88dc9e082efa4eb5614ace5132fe2a29cba363106311572021-09-04 20:52:3341 days 17 hrs ago BSC: Token Hub0xbd0dc10e9744f8e6f6b42a0e7deab0e9b5921f2f0.23 BNB
[ Download CSV Export 
Loading

Contract Name:
0 BNB

Compiler Version
0

Optimization Enabled:
0 BNB

Other Settings:
-NA-
Block Transaction Gas Used Reward
Age Block Fee Address BC Fee Address Voting Power Jailed Incoming
Block Uncle Number Difficulty Gas Used Reward
Loading
Loading
Make sure to use the "Vote Down" button for any spammy posts, and the "Vote Up" for interesting conversations.